Station History

Weather Underground - logo

Station Historical Data
Daily Summary for January 03, 2018 Units:  English    Metric   Both
« Previous Day
Next Day »
Daily Weekly Monthly Yearly Custom
  High: Low: Average:
Temperature: 66.5 °F 38.8 °F 52.2 °F
Dew Point: 48.7 °F 36.9 °F 43.9 °F
Humidity: 95 % 47 % 76 %
Wind Speed: 4.0 mph 0.0 mph 0.4 mph
Wind Gust: 4.0 mph - -
Wind:- - WSW
Pressure: 30.15 in 30.01 in -
Precipitation: 0.00 in    
Historical Graphs
 
 
Tabular Data for January 03, 2018
Time Temperature Dew Point Pressure Wind Wind Speed Wind Gust Humidity Rainfall Rate (Hourly)
00:05 45.8 °F 43.0 °F 30.15 in Calm     90 % 0.00 in
00:10 46.1 °F 43.3 °F 30.14 in Calm     90 % 0.00 in
00:12 46.3 °F 43.2 °F 30.14 in Calm     89 % 0.00 in
00:14 46.3 °F 43.2 °F 30.14 in Calm     89 % 0.00 in
00:19 46.1 °F 42.7 °F 30.14 in Calm     88 % 0.00 in
00:21 45.9 °F 42.5 °F 30.14 in Calm     88 % 0.00 in
00:23 45.8 °F 42.4 °F 30.14 in Calm     88 % 0.00 in
00:28 45.3 °F 42.0 °F 30.13 in Calm     88 % 0.00 in
00:29 45.2 °F 41.9 °F 30.13 in Calm     88 % 0.00 in
00:33 44.9 °F 41.6 °F 30.13 in Calm     88 % 0.00 in
00:38 44.3 °F 41.0 °F 30.13 in Calm     88 % 0.00 in
00:46 43.5 °F 40.5 °F 30.12 in Calm     89 % 0.00 in
00:51 43.0 °F 40.0 °F 30.12 in SSE 1.2 mph 1.2 mph 89 % 0.00 in
00:53 42.7 °F 39.7 °F 30.12 in Calm     89 % 0.00 in
00:57 42.5 °F 39.8 °F 30.12 in Calm     90 % 0.00 in
00:59 42.4 °F 39.7 °F 30.12 in Calm     90 % 0.00 in
01:02 42.2 °F 39.8 °F 30.12 in Calm     91 % 0.00 in
01:04 42.2 °F 39.8 °F 30.12 in Calm     91 % 0.00 in
01:09 41.8 °F 39.4 °F 30.12 in Calm     91 % 0.00 in
01:14 41.6 °F 39.2 °F 30.13 in Calm     91 % 0.00 in
01:15 41.5 °F 39.1 °F 30.13 in Calm     91 % 0.00 in
01:20 41.2 °F 38.8 °F 30.13 in Calm     91 % 0.00 in
01:22 41.2 °F 38.8 °F 30.13 in Calm     91 % 0.00 in
01:26 41.2 °F 39.1 °F 30.13 in Calm     92 % 0.00 in
01:31 41.1 °F 39.0 °F 30.14 in Calm     92 % 0.00 in
01:36 40.9 °F 38.8 °F 30.14 in Calm     92 % 0.00 in
01:40 40.7 °F 38.6 °F 30.14 in Calm     92 % 0.00 in
01:41 40.6 °F 38.5 °F 30.14 in Calm     92 % 0.00 in
01:46 40.4 °F 38.3 °F 30.14 in Calm     92 % 0.00 in
01:48 40.3 °F 38.2 °F 30.14 in Calm     92 % 0.00 in
01:50 40.3 °F 38.2 °F 30.14 in Calm   0.2 mph 92 % 0.00 in
01:55 40.2 °F 38.3 °F 30.14 in Calm     93 % 0.00 in
01:57 40.1 °F 38.2 °F 30.14 in Calm     93 % 0.00 in
01:59 40.1 °F 38.2 °F 30.14 in Calm     93 % 0.00 in
02:03 40.0 °F 38.1 °F 30.14 in Calm     93 % 0.00 in
02:08 39.9 °F 38.0 °F 30.14 in Calm     93 % 0.00 in
02:09 39.9 °F 38.0 °F 30.14 in Calm     93 % 0.00 in
02:14 39.9 °F 38.0 °F 30.14 in Calm     93 % 0.00 in
02:17 40.0 °F 38.1 °F 30.14 in Calm     93 % 0.00 in
02:21 40.0 °F 38.1 °F 30.14 in Calm     93 % 0.00 in
02:25 40.0 °F 38.1 °F 30.14 in Calm     93 % 0.00 in
02:30 40.2 °F 38.3 °F 30.14 in Calm     93 % 0.00 in
02:32 40.3 °F 38.7 °F 30.14 in Calm     94 % 0.00 in
02:33 40.3 °F 38.7 °F 30.14 in Calm     94 % 0.00 in
02:38 40.5 °F 38.9 °F 30.14 in Calm     94 % 0.00 in
02:43 40.8 °F 39.2 °F 30.14 in Calm     94 % 0.00 in
02:48 41.0 °F 39.4 °F 30.14 in Calm     94 % 0.00 in
02:49 41.0 °F 39.4 °F 30.14 in Calm     94 % 0.00 in
02:54 41.1 °F 39.2 °F 30.14 in Calm     93 % 0.00 in
02:55 41.1 °F 39.2 °F 30.14 in Calm     93 % 0.00 in
02:56 41.2 °F 39.3 °F 30.14 in Calm     93 % 0.00 in
03:03 41.6 °F 39.7 °F 30.14 in Calm     93 % 0.00 in
03:14 41.9 °F 40.0 °F 30.14 in Calm     93 % 0.00 in
03:19 41.8 °F 39.6 °F 30.14 in Calm     92 % 0.00 in
03:22 41.7 °F 39.5 °F 30.14 in Calm     92 % 0.00 in
03:27 41.3 °F 39.2 °F 30.14 in Calm     92 % 0.00 in
03:32 41.2 °F 39.1 °F 30.14 in Calm     92 % 0.00 in
03:33 41.2 °F 39.1 °F 30.14 in Calm     92 % 0.00 in
03:39 41.3 °F 39.4 °F 30.14 in Calm     93 % 0.00 in
03:44 41.2 °F 39.1 °F 30.13 in Calm     92 % 0.00 in
03:48 40.8 °F 38.7 °F 30.13 in Calm     92 % 0.00 in
03:53 40.7 °F 38.6 °F 30.13 in Calm     92 % 0.00 in
03:54 40.7 °F 38.8 °F 30.13 in Calm     93 % 0.00 in
03:59 40.9 °F 39.0 °F 30.13 in Calm     93 % 0.00 in
04:06 40.8 °F 38.9 °F 30.12 in Calm     93 % 0.00 in
04:10 40.8 °F 38.9 °F 30.12 in Calm     93 % 0.00 in
04:11 40.8 °F 38.9 °F 30.12 in Calm     93 % 0.00 in
04:16 40.8 °F 38.9 °F 30.12 in Calm     93 % 0.00 in
04:18 40.7 °F 38.8 °F 30.12 in Calm     93 % 0.00 in
04:23 40.6 °F 38.7 °F 30.11 in Calm     93 % 0.00 in
04:28 40.4 °F 38.5 °F 30.11 in Calm     93 % 0.00 in
04:29 40.4 °F 38.5 °F 30.11 in Calm     93 % 0.00 in
04:34 40.3 °F 38.4 °F 30.11 in Calm     93 % 0.00 in
04:37 40.1 °F 38.2 °F 30.11 in Calm     93 % 0.00 in
04:42 39.9 °F 38.0 °F 30.10 in Calm     93 % 0.00 in
04:44 39.9 °F 38.0 °F 30.10 in Calm     93 % 0.00 in
04:49 39.9 °F 38.0 °F 30.10 in Calm     93 % 0.00 in
04:57 39.9 °F 38.0 °F 30.10 in Calm     93 % 0.00 in
05:02 39.6 °F 37.7 °F 30.10 in Calm     93 % 0.00 in
05:04 39.3 °F 37.2 °F 30.09 in Calm     92 % 0.00 in
05:12 38.9 °F 37.0 °F 30.09 in Calm     93 % 0.00 in
05:15 38.9 °F 37.0 °F 30.09 in Calm     93 % 0.00 in
05:19 38.9 °F 37.0 °F 30.09 in Calm     93 % 0.00 in
05:25 38.9 °F 37.0 °F 30.09 in Calm     93 % 0.00 in
05:30 38.9 °F 37.3 °F 30.09 in Calm     94 % 0.00 in
05:31 38.9 °F 37.3 °F 30.09 in Calm     94 % 0.00 in
05:37 38.9 °F 37.3 °F 30.09 in Calm     94 % 0.00 in
05:42 38.8 °F 36.9 °F 30.09 in Calm     93 % 0.00 in
05:47 38.8 °F 37.2 °F 30.08 in Calm     94 % 0.00 in
05:50 38.9 °F 37.3 °F 30.09 in Calm     94 % 0.00 in
05:55 39.0 °F 37.4 °F 30.09 in Calm     94 % 0.00 in
06:00 38.9 °F 37.3 °F 30.09 in Calm     94 % 0.00 in
06:02 38.9 °F 37.3 °F 30.09 in Calm     94 % 0.00 in
06:06 38.9 °F 37.3 °F 30.09 in Calm     94 % 0.00 in
06:08 38.9 °F 37.3 °F 30.09 in Calm     94 % 0.00 in
06:13 39.0 °F 37.4 °F 30.10 in Calm     94 % 0.00 in
06:15 39.1 °F 37.5 °F 30.10 in Calm     94 % 0.00 in
06:19 39.3 °F 37.7 °F 30.10 in Calm     94 % 0.00 in
06:24 39.7 °F 38.1 °F 30.10 in Calm     94 % 0.00 in
06:25 39.8 °F 38.2 °F 30.10 in Calm     94 % 0.00 in
06:30 40.0 °F 38.4 °F 30.10 in Calm     94 % 0.00 in
06:34 40.2 °F 38.9 °F 30.10 in Calm     95 % 0.00 in
06:39 40.5 °F 39.2 °F 30.10 in Calm     95 % 0.00 in
06:40 40.5 °F 39.2 °F 30.10 in Calm     95 % 0.00 in
06:45 40.8 °F 39.5 °F 30.10 in Calm     95 % 0.00 in
06:49 41.0 °F 39.7 °F 30.10 in Calm     95 % 0.00 in
06:54 40.9 °F 39.3 °F 30.11 in Calm     94 % 0.00 in
06:55 41.0 °F 39.4 °F 30.11 in Calm     94 % 0.00 in
07:00 40.9 °F 39.3 °F 30.11 in Calm     94 % 0.00 in
07:05 41.0 °F 39.4 °F 30.10 in Calm     94 % 0.00 in
07:07 41.1 °F 39.5 °F 30.10 in Calm     94 % 0.00 in
07:08 41.1 °F 39.5 °F 30.10 in Calm     94 % 0.00 in
07:13 41.4 °F 39.8 °F 30.10 in Calm     94 % 0.00 in
07:16 41.6 °F 40.0 °F 30.10 in Calm     94 % 0.00 in
07:18 41.8 °F 40.2 °F 30.11 in Calm     94 % 0.00 in
07:23 41.9 °F 40.3 °F 30.10 in Calm     94 % 0.00 in
07:28 41.9 °F 40.3 °F 30.11 in Calm     94 % 0.00 in
07:34 41.9 °F 40.0 °F 30.11 in Calm     93 % 0.00 in
07:40 42.0 °F 40.1 °F 30.11 in Calm     93 % 0.00 in
07:41 42.1 °F 40.2 °F 30.11 in Calm     93 % 0.00 in
07:42 42.1 °F 40.2 °F 30.11 in Calm     93 % 0.00 in
07:47 42.3 °F 40.7 °F 30.11 in Calm     94 % 0.00 in
07:50 42.5 °F 40.9 °F 30.10 in Calm     94 % 0.00 in
07:53 42.7 °F 41.1 °F 30.11 in Calm     94 % 0.00 in
07:56 42.8 °F 41.2 °F 30.11 in Calm     94 % 0.00 in
08:01 43.1 °F 41.2 °F 30.12 in Calm     93 % 0.00 in
08:04 43.1 °F 41.2 °F 30.11 in Calm     93 % 0.00 in
08:10 43.3 °F 41.4 °F 30.11 in Calm     93 % 0.00 in
08:13 43.4 °F 41.5 °F 30.11 in Calm     93 % 0.00 in
08:15 43.6 °F 41.7 °F 30.11 in Calm     93 % 0.00 in
08:21 44.6 °F 42.7 °F 30.11 in Calm     93 % 0.00 in
08:26 45.3 °F 43.1 °F 30.11 in Calm     92 % 0.00 in
08:27 45.5 °F 43.0 °F 30.11 in WNW 1.2 mph 1.2 mph 91 % 0.00 in
08:33 46.4 °F 43.6 °F 30.11 in Calm     90 % 0.00 in
08:34 46.5 °F 43.7 °F 30.11 in Calm     90 % 0.00 in
08:39 47.1 °F 43.7 °F 30.11 in Calm     88 % 0.00 in
08:42 47.5 °F 44.1 °F 30.11 in Calm     88 % 0.00 in
08:47 48.4 °F 44.4 °F 30.12 in Calm     86 % 0.00 in
08:48 48.5 °F 44.5 °F 30.11 in WNW 1.0 mph   86 % 0.00 in
08:53 49.0 °F 44.7 °F 30.11 in Calm     85 % 0.00 in
08:55 49.3 °F 44.7 °F 30.11 in ESE 1.2 mph 1.2 mph 84 % 0.00 in
09:01 50.0 °F 45.0 °F 30.11 in SE 1.2 mph   83 % 0.00 in
09:08 50.8 °F 45.2 °F 30.10 in SE 1.2 mph 1.2 mph 81 % 0.00 in
09:13 51.4 °F 45.4 °F 30.10 in West 1.2 mph   80 % 0.00 in
09:14 51.4 °F 45.4 °F 30.10 in Calm     80 % 0.00 in
09:19 51.6 °F 45.0 °F 30.10 in ESE 1.2 mph   78 % 0.00 in
09:20 51.7 °F 45.1 °F 30.10 in Calm     78 % 0.00 in
09:25 52.4 °F 45.1 °F 30.10 in NNW 2.0 mph 2.0 mph 76 % 0.00 in
09:30 52.6 °F 44.9 °F 30.09 in NW 1.2 mph 1.2 mph 75 % 0.00 in
09:31 52.7 °F 44.6 °F 30.10 in WNW 1.2 mph 1.2 mph 74 % 0.00 in
09:36 53.0 °F 44.9 °F 30.10 in Calm     74 % 0.00 in
09:41 53.7 °F 44.9 °F 30.10 in NW 1.2 mph   72 % 0.00 in
09:43 53.9 °F 44.7 °F 30.10 in Calm     71 % 0.00 in
09:47 54.5 °F 45.3 °F 30.09 in NNW 2.3 mph 2.3 mph 71 % 0.00 in
09:49 54.7 °F 45.5 °F 30.09 in NW 2.3 mph 2.3 mph 71 % 0.00 in
09:50 55.0 °F 45.8 °F 30.09 in Calm     71 % 0.00 in
09:57 56.1 °F 45.7 °F 30.09 in WNW 1.0 mph   68 % 0.00 in
10:02 56.7 °F 45.9 °F 30.08 in Calm     67 % 0.00 in
10:08 57.9 °F 45.8 °F 30.08 in NNW 1.2 mph 1.2 mph 64 % 0.00 in
10:09 57.9 °F 45.4 °F 30.08 in NW 2.0 mph 2.0 mph 63 % 0.00 in
10:14 58.2 °F 44.8 °F 30.08 in NNW 2.0 mph 2.0 mph 61 % 0.00 in
10:16 58.3 °F 44.9 °F 30.08 in NNW 1.2 mph 1.2 mph 61 % 0.00 in
10:19 58.4 °F 45.0 °F 30.08 in Calm     61 % 0.00 in
10:24 58.8 °F 44.9 °F 30.08 in Calm     60 % 0.00 in
10:26 58.9 °F 45.5 °F 30.08 in Calm     61 % 0.00 in
10:31 59.3 °F 45.4 °F 30.08 in Calm     60 % 0.00 in
10:32 59.4 °F 45.5 °F 30.08 in Calm     60 % 0.00 in
10:37 59.8 °F 46.3 °F 30.08 in NW 1.2 mph 1.2 mph 61 % 0.00 in
10:39 59.9 °F 46.4 °F 30.07 in Calm     61 % 0.00 in
10:44 60.3 °F 46.4 °F 30.07 in Calm     60 % 0.00 in
10:45 60.4 °F 46.0 °F 30.07 in Calm     59 % 0.00 in
10:52 61.1 °F 47.1 °F 30.07 in WNW 1.2 mph 1.2 mph 60 % 0.00 in
10:57 61.1 °F 46.7 °F 30.07 in Calm   0.3 mph 59 % 0.00 in
10:59 61.1 °F 46.2 °F 30.07 in NW 1.2 mph 1.2 mph 58 % 0.00 in
11:04 61.2 °F 45.8 °F 30.07 in NW 2.0 mph 2.0 mph 57 % 0.00 in
11:05 61.2 °F 45.8 °F 30.07 in NW 2.3 mph 2.3 mph 57 % 0.00 in
11:06 61.3 °F 45.9 °F 30.07 in North 1.2 mph 1.2 mph 57 % 0.00 in
11:17 61.8 °F 45.5 °F 30.07 in NW 3.5 mph 3.5 mph 55 % 0.00 in
11:19 61.8 °F 45.5 °F 30.07 in NW 1.2 mph 1.2 mph 55 % 0.00 in
11:24 62.1 °F 45.2 °F 30.06 in WNW 1.2 mph 1.2 mph 54 % 0.00 in
11:26 62.2 °F 44.9 °F 30.06 in WNW 1.2 mph 1.2 mph 53 % 0.00 in
11:34 62.4 °F 45.0 °F 30.06 in Calm     53 % 0.00 in
11:39 62.9 °F 46.0 °F 30.06 in Calm     54 % 0.00 in
11:44 63.2 °F 45.3 °F 30.06 in Calm     52 % 0.00 in
11:49 63.4 °F 44.4 °F 30.05 in WNW 1.2 mph   50 % 0.00 in
11:51 63.5 °F 45.0 °F 30.05 in WSW 1.2 mph 1.2 mph 51 % 0.00 in
11:56 64.1 °F 45.1 °F 30.06 in NW 1.2 mph 1.2 mph 50 % 0.00 in
12:01 64.6 °F 45.5 °F 30.05 in Calm     50 % 0.00 in
12:03 64.8 °F 45.2 °F 30.05 in Calm     49 % 0.00 in
12:08 65.5 °F 46.9 °F 30.05 in Calm     51 % 0.00 in
12:10 65.7 °F 47.1 °F 30.05 in Calm     51 % 0.00 in
12:16 66.1 °F 45.8 °F 30.05 in Calm     48 % 0.00 in
12:20 66.1 °F 45.3 °F 30.05 in Calm     47 % 0.00 in
12:25 66.0 °F 45.7 °F 30.04 in Calm     48 % 0.00 in
12:27 66.0 °F 45.2 °F 30.04 in Calm     47 % 0.00 in
12:32 66.0 °F 45.2 °F 30.04 in Calm     47 % 0.00 in
12:33 66.1 °F 45.3 °F 30.04 in Calm     47 % 0.00 in
12:38 66.0 °F 45.2 °F 30.04 in WNW 1.2 mph 1.2 mph 47 % 0.00 in
12:43 65.8 °F 45.0 °F 30.04 in Calm     47 % 0.00 in
12:48 65.9 °F 45.1 °F 30.03 in Calm     47 % 0.00 in
12:50 65.9 °F 45.1 °F 30.03 in Calm     47 % 0.00 in
12:55 65.9 °F 45.1 °F 30.03 in NNW 1.2 mph   47 % 0.00 in
12:56 65.9 °F 45.1 °F 30.03 in Calm     47 % 0.00 in
13:01 65.9 °F 45.6 °F 30.03 in Calm     48 % 0.00 in
13:05 65.9 °F 45.6 °F 30.03 in Calm     48 % 0.00 in
13:10 65.8 °F 45.6 °F 30.02 in NW 1.2 mph 1.2 mph 48 % 0.00 in
13:16 65.8 °F 45.6 °F 30.02 in NW 1.2 mph 1.2 mph 48 % 0.00 in
13:17 65.8 °F 45.6 °F 30.02 in WNW 2.0 mph 2.0 mph 48 % 0.00 in
13:23 65.6 °F 45.4 °F 30.02 in Calm   0.1 mph 48 % 0.00 in
13:28 65.6 °F 45.4 °F 30.02 in NW 1.2 mph   48 % 0.00 in
13:29 65.6 °F 45.4 °F 30.02 in Calm     48 % 0.00 in
13:34 65.6 °F 45.9 °F 30.02 in Calm     49 % 0.00 in
13:35 65.6 °F 45.9 °F 30.02 in Calm     49 % 0.00 in
13:40 65.6 °F 45.9 °F 30.02 in WNW 2.3 mph 2.3 mph 49 % 0.00 in
13:45 65.9 °F 46.2 °F 30.02 in NW 2.3 mph 2.3 mph 49 % 0.00 in
13:51 66.2 °F 46.5 °F 30.02 in NW 1.2 mph 1.2 mph 49 % 0.00 in
13:54 66.4 °F 46.7 °F 30.02 in NW 1.2 mph   49 % 0.00 in
13:57 66.4 °F 46.1 °F 30.02 in North 1.2 mph 1.2 mph 48 % 0.00 in
14:03 66.4 °F 46.1 °F 30.02 in NW 2.3 mph 2.3 mph 48 % 0.00 in
14:07 66.4 °F 46.1 °F 30.02 in WNW 2.3 mph 2.3 mph 48 % 0.00 in
14:08 66.4 °F 46.7 °F 30.02 in NW 1.2 mph 1.2 mph 49 % 0.00 in
14:13 66.4 °F 46.1 °F 30.02 in WNW 2.3 mph 2.3 mph 48 % 0.00 in
14:16 66.4 °F 46.7 °F 30.02 in Calm   0.2 mph 49 % 0.00 in
14:20 66.3 °F 46.0 °F 30.02 in NW 1.2 mph 1.2 mph 48 % 0.00 in
14:23 66.3 °F 46.0 °F 30.02 in NNW 3.5 mph 3.5 mph 48 % 0.00 in
14:26 66.4 °F 46.7 °F 30.01 in NW 1.2 mph 1.2 mph 49 % 0.00 in
14:30 66.4 °F 46.7 °F 30.01 in NNW 1.2 mph 1.2 mph 49 % 0.00 in
14:35 66.5 °F 47.3 °F 30.01 in NW 1.2 mph 1.2 mph 50 % 0.00 in
14:36 66.4 °F 47.2 °F 30.01 in NW 1.2 mph 1.2 mph 50 % 0.00 in
14:39 66.4 °F 47.2 °F 30.02 in NW 1.2 mph 1.2 mph 50 % 0.00 in
14:42 66.4 °F 47.7 °F 30.02 in Calm     51 % 0.00 in
14:46 66.4 °F 47.2 °F 30.02 in NW 1.2 mph 1.2 mph 50 % 0.00 in
14:49 66.4 °F 47.2 °F 30.02 in NW 1.2 mph   50 % 0.00 in
14:54 66.4 °F 46.7 °F 30.02 in NNW 2.3 mph 2.3 mph 49 % 0.00 in
15:00 66.3 °F 46.6 °F 30.02 in NW 1.0 mph 1.0 mph 49 % 0.00 in
15:02 66.3 °F 46.6 °F 30.02 in Calm     49 % 0.00 in
15:06 66.3 °F 46.6 °F 30.03 in Calm     49 % 0.00 in
15:11 66.3 °F 46.6 °F 30.02 in NW 1.2 mph   49 % 0.00 in
15:15 66.2 °F 47.0 °F 30.03 in NW 1.2 mph 1.2 mph 50 % 0.00 in
15:17 66.2 °F 46.5 °F 30.03 in NW 1.2 mph 1.2 mph 49 % 0.00 in
15:22 65.9 °F 45.6 °F 30.02 in NW 1.2 mph 1.2 mph 48 % 0.00 in
15:27 65.7 °F 45.5 °F 30.03 in WNW 1.2 mph 1.2 mph 48 % 0.00 in
15:29 65.6 °F 44.8 °F 30.03 in WNW 1.2 mph 1.2 mph 47 % 0.00 in
15:34 65.3 °F 45.6 °F 30.03 in NW 1.2 mph 1.2 mph 49 % 0.00 in
15:39 64.9 °F 45.8 °F 30.03 in NW 2.3 mph 2.3 mph 50 % 0.00 in
15:40 64.9 °F 45.8 °F 30.03 in NW 2.3 mph 2.3 mph 50 % 0.00 in
15:42 64.8 °F 46.2 °F 30.03 in WNW 1.2 mph 1.2 mph 51 % 0.00 in
15:46 64.7 °F 46.1 °F 30.03 in NW 1.2 mph 1.2 mph 51 % 0.00 in
15:51 64.5 °F 46.5 °F 30.03 in Calm     52 % 0.00 in
15:52 64.4 °F 46.4 °F 30.03 in Calm     52 % 0.00 in
15:57 64.2 °F 46.7 °F 30.03 in Calm     53 % 0.00 in
15:58 64.2 °F 46.7 °F 30.03 in Calm     53 % 0.00 in
16:00 64.1 °F 46.6 °F 30.03 in Calm     53 % 0.00 in
16:03 63.9 °F 46.9 °F 30.03 in Calm     54 % 0.00 in
16:08 63.5 °F 47.0 °F 30.04 in Calm     55 % 0.00 in
16:09 63.4 °F 46.9 °F 30.04 in Calm     55 % 0.00 in
16:14 63.2 °F 47.2 °F 30.04 in Calm     56 % 0.00 in
16:19 63.0 °F 47.5 °F 30.04 in Calm     57 % 0.00 in
16:24 62.6 °F 47.6 °F 30.05 in Calm     58 % 0.00 in
16:26 62.5 °F 47.5 °F 30.05 in Calm     58 % 0.00 in
16:32 62.1 °F 47.6 °F 30.05 in Calm     59 % 0.00 in
16:33 62.0 °F 47.5 °F 30.05 in Calm     59 % 0.00 in
16:38 61.9 °F 47.4 °F 30.05 in Calm     59 % 0.00 in
16:43 61.7 °F 47.7 °F 30.04 in Calm     60 % 0.00 in
16:45 61.6 °F 47.1 °F 30.04 in Calm     59 % 0.00 in
16:49 61.7 °F 47.2 °F 30.04 in Calm     59 % 0.00 in
16:54 61.9 °F 47.4 °F 30.04 in Calm     59 % 0.00 in
16:55 61.8 °F 47.3 °F 30.04 in Calm     59 % 0.00 in
17:00 61.5 °F 47.9 °F 30.04 in Calm     61 % 0.00 in
17:05 61.0 °F 47.9 °F 30.04 in Calm     62 % 0.00 in
17:10 60.4 °F 47.7 °F 30.05 in Calm     63 % 0.00 in
17:13 60.1 °F 47.9 °F 30.05 in Calm     64 % 0.00 in
17:18 59.7 °F 47.9 °F 30.05 in Calm     65 % 0.00 in
17:23 59.7 °F 47.9 °F 30.05 in Calm     65 % 0.00 in
17:24 59.7 °F 47.5 °F 30.05 in Calm     64 % 0.00 in
17:29 59.9 °F 47.7 °F 30.05 in Calm     64 % 0.00 in
17:30 60.0 °F 47.8 °F 30.05 in Calm     64 % 0.00 in
17:35 59.7 °F 48.7 °F 30.05 in Calm     67 % 0.00 in
17:40 59.0 °F 48.4 °F 30.04 in Calm     68 % 0.00 in
17:43 58.7 °F 48.2 °F 30.04 in Calm     68 % 0.00 in
17:45 58.6 °F 48.1 °F 30.03 in Calm     68 % 0.00 in
17:50 59.0 °F 47.2 °F 30.03 in Calm     65 % 0.00 in
17:55 59.8 °F 46.7 °F 30.03 in WNW 1.2 mph 1.2 mph 62 % 0.00 in
18:00 60.7 °F 46.7 °F 30.03 in Calm     60 % 0.00 in
18:05 61.1 °F 46.2 °F 30.03 in NW 2.0 mph 2.0 mph 58 % 0.00 in
18:07 61.2 °F 47.2 °F 30.03 in NW 3.5 mph 3.5 mph 60 % 0.00 in
18:12 60.6 °F 47.1 °F 30.04 in WNW 1.2 mph   61 % 0.00 in
18:13 60.5 °F 47.0 °F 30.04 in Calm     61 % 0.00 in
18:18 60.0 °F 47.4 °F 30.06 in SE 3.5 mph 3.5 mph 63 % 0.00 in
18:19 59.9 °F 47.3 °F 30.06 in SSE 4.0 mph 4.0 mph 63 % 0.00 in
18:21 59.8 °F 47.6 °F 30.06 in NNW 3.5 mph 3.5 mph 64 % 0.00 in
18:26 59.7 °F 47.5 °F 30.06 in NW 2.3 mph 2.3 mph 64 % 0.00 in
18:28 59.7 °F 47.9 °F 30.06 in NW 2.3 mph 2.3 mph 65 % 0.00 in
18:33 59.7 °F 47.9 °F 30.06 in West 1.2 mph 1.2 mph 65 % 0.00 in
18:38 59.4 °F 48.0 °F 30.06 in Calm     66 % 0.00 in
18:39 59.4 °F 48.0 °F 30.06 in West 1.2 mph   66 % 0.00 in
18:44 59.1 °F 48.1 °F 30.06 in NNW 1.2 mph 1.2 mph 67 % 0.00 in
18:49 58.9 °F 48.0 °F 30.06 in Calm     67 % 0.00 in
18:52 58.8 °F 48.3 °F 30.06 in Calm     68 % 0.00 in
18:54 58.7 °F 48.2 °F 30.06 in Calm     68 % 0.00 in
18:57 58.5 °F 48.0 °F 30.06 in Calm     68 % 0.00 in
19:02 58.2 °F 48.1 °F 30.06 in Calm     69 % 0.00 in
19:04 58.0 °F 47.9 °F 30.05 in Calm     69 % 0.00 in
19:09 57.6 °F 48.3 °F 30.06 in Calm     71 % 0.00 in
19:10 57.5 °F 48.2 °F 30.06 in Calm   0.1 mph 71 % 0.00 in
19:14 57.0 °F 48.1 °F 30.05 in Calm     72 % 0.00 in
19:16 56.8 °F 47.9 °F 30.05 in Calm     72 % 0.00 in
19:21 56.4 °F 47.9 °F 30.05 in Calm     73 % 0.00 in
19:22 56.3 °F 47.8 °F 30.05 in Calm     73 % 0.00 in
19:27 56.0 °F 47.8 °F 30.05 in ESE 1.2 mph   74 % 0.00 in
19:29 55.8 °F 47.6 °F 30.05 in Calm     74 % 0.00 in
19:31 55.7 °F 47.5 °F 30.05 in Calm     74 % 0.00 in
19:35 55.5 °F 47.7 °F 30.05 in Calm     75 % 0.00 in
19:40 55.2 °F 47.4 °F 30.05 in Calm     75 % 0.00 in
19:45 55.0 °F 47.6 °F 30.04 in Calm     76 % 0.00 in
19:46 54.9 °F 47.5 °F 30.04 in Calm     76 % 0.00 in
19:51 54.9 °F 47.5 °F 30.04 in Calm     76 % 0.00 in
19:52 55.0 °F 47.6 °F 30.04 in Calm     76 % 0.00 in
19:54 55.0 °F 47.6 °F 30.04 in Calm     76 % 0.00 in
19:58 55.1 °F 47.3 °F 30.04 in Calm     75 % 0.00 in
20:03 55.2 °F 47.4 °F 30.03 in Calm     75 % 0.00 in
20:06 55.3 °F 47.5 °F 30.03 in Calm     75 % 0.00 in
20:11 55.1 °F 47.3 °F 30.04 in Calm     75 % 0.00 in
20:13 55.1 °F 47.3 °F 30.04 in Calm     75 % 0.00 in
20:14 55.1 °F 47.3 °F 30.04 in Calm     75 % 0.00 in
20:15 55.1 °F 47.3 °F 30.04 in Calm     75 % 0.00 in
20:16 55.0 °F 47.2 °F 30.04 in Calm     75 % 0.00 in
20:17 55.0 °F 47.6 °F 30.04 in Calm     76 % 0.00 in
20:18 54.9 °F 47.5 °F 30.04 in Calm     76 % 0.00 in
20:19 54.9 °F 47.5 °F 30.04 in Calm     76 % 0.00 in
20:25 54.4 °F 47.3 °F 30.04 in Calm     77 % 0.00 in
20:30 54.1 °F 47.0 °F 30.03 in Calm     77 % 0.00 in
20:31 54.1 °F 47.0 °F 30.03 in Calm     77 % 0.00 in
20:36 53.9 °F 47.2 °F 30.04 in Calm     78 % 0.00 in
20:39 53.7 °F 47.0 °F 30.03 in Calm     78 % 0.00 in
20:40 53.7 °F 47.0 °F 30.04 in Calm     78 % 0.00 in
20:44 53.5 °F 46.8 °F 30.04 in Calm     78 % 0.00 in
20:45 53.5 °F 46.8 °F 30.04 in Calm     78 % 0.00 in
20:50 52.9 °F 46.9 °F 30.04 in Calm     80 % 0.00 in
20:51 52.8 °F 46.8 °F 30.04 in Calm     80 % 0.00 in
20:54 52.6 °F 46.6 °F 30.04 in Calm     80 % 0.00 in
20:58 52.2 °F 46.5 °F 30.04 in Calm     81 % 0.00 in
21:02 52.0 °F 46.3 °F 30.04 in Calm     81 % 0.00 in
21:07 51.5 °F 46.2 °F 30.04 in Calm     82 % 0.00 in
21:09 51.4 °F 46.1 °F 30.04 in Calm     82 % 0.00 in
21:14 51.3 °F 46.3 °F 30.04 in Calm     83 % 0.00 in
21:15 51.3 °F 46.3 °F 30.04 in Calm     83 % 0.00 in
21:16 51.3 °F 46.3 °F 30.04 in Calm     83 % 0.00 in
21:21 51.2 °F 46.2 °F 30.03 in Calm     83 % 0.00 in
21:26 50.9 °F 45.9 °F 30.03 in Calm     83 % 0.00 in
21:29 50.8 °F 45.8 °F 30.03 in Calm     83 % 0.00 in
21:30 50.7 °F 45.7 °F 30.03 in ESE 1.2 mph 1.2 mph 83 % 0.00 in
21:34 50.5 °F 45.8 °F 30.03 in Calm     84 % 0.00 in
21:35 50.4 °F 45.7 °F 30.03 in Calm     84 % 0.00 in
21:36 50.4 °F 45.7 °F 30.03 in Calm     84 % 0.00 in
21:37 50.4 °F 45.7 °F 30.04 in ESE 1.2 mph   84 % 0.00 in
21:38 50.4 °F 45.7 °F 30.04 in ESE 1.2 mph 1.2 mph 84 % 0.00 in
21:43 50.1 °F 45.5 °F 30.04 in ESE 1.2 mph   84 % 0.00 in
21:47 50.0 °F 45.4 °F 30.04 in Calm     84 % 0.00 in
21:49 49.8 °F 45.5 °F 30.04 in Calm     85 % 0.00 in
21:54 49.6 °F 45.3 °F 30.04 in SE 1.0 mph 1.0 mph 85 % 0.00 in
21:55 49.6 °F 45.3 °F 30.04 in SE 1.2 mph 1.2 mph 85 % 0.00 in
21:58 49.3 °F 45.3 °F 30.04 in SE 1.2 mph 1.2 mph 86 % 0.00 in
22:00 49.3 °F 45.3 °F 30.04 in SE 2.3 mph 2.3 mph 86 % 0.00 in
22:01 49.2 °F 45.2 °F 30.04 in ESE 1.2 mph 1.2 mph 86 % 0.00 in
22:03 49.1 °F 45.1 °F 30.04 in SE 1.2 mph   86 % 0.00 in
22:08 48.8 °F 45.1 °F 30.05 in SE 1.2 mph 1.2 mph 87 % 0.00 in
22:10 48.8 °F 45.1 °F 30.05 in SE 1.2 mph   87 % 0.00 in
22:15 48.8 °F 45.1 °F 30.06 in Calm     87 % 0.00 in
22:18 48.8 °F 45.1 °F 30.06 in SE 1.2 mph   87 % 0.00 in
22:21 48.7 °F 45.0 °F 30.05 in SSE 1.2 mph 1.2 mph 87 % 0.00 in
22:24 48.6 °F 44.9 °F 30.05 in SE 1.2 mph 1.2 mph 87 % 0.00 in
22:26 48.5 °F 44.8 °F 30.05 in Calm     87 % 0.00 in
22:28 48.4 °F 44.7 °F 30.05 in Calm   0.1 mph 87 % 0.00 in
22:33 48.3 °F 44.6 °F 30.05 in Calm     87 % 0.00 in
22:34 48.2 °F 44.5 °F 30.05 in SE 1.2 mph 1.2 mph 87 % 0.00 in
22:38 48.2 °F 44.5 °F 30.06 in SE 1.0 mph   87 % 0.00 in
22:39 48.1 °F 44.4 °F 30.06 in SE 1.2 mph   87 % 0.00 in
22:42 48.1 °F 44.4 °F 30.06 in Calm     87 % 0.00 in
22:45 48.1 °F 44.4 °F 30.06 in Calm     87 % 0.00 in
22:46 48.1 °F 44.4 °F 30.06 in Calm     87 % 0.00 in
22:47 48.1 °F 44.4 °F 30.06 in Calm     87 % 0.00 in
22:51 48.3 °F 44.3 °F 30.06 in Calm     86 % 0.00 in
22:53 48.3 °F 44.3 °F 30.06 in SE 1.2 mph   86 % 0.00 in
22:54 48.3 °F 44.3 °F 30.06 in Calm     86 % 0.00 in
22:58 48.3 °F 44.3 °F 30.06 in Calm     86 % 0.00 in
23:03 48.3 °F 44.3 °F 30.06 in ESE 1.2 mph   86 % 0.00 in
23:04 48.3 °F 44.3 °F 30.06 in Calm     86 % 0.00 in
23:05 48.3 °F 44.3 °F 30.06 in Calm     86 % 0.00 in
23:10 48.3 °F 44.6 °F 30.07 in Calm     87 % 0.00 in
23:13 48.4 °F 44.7 °F 30.07 in Calm     87 % 0.00 in
23:15 48.5 °F 44.8 °F 30.07 in East 1.2 mph 1.2 mph 87 % 0.00 in
23:16 48.5 °F 44.8 °F 30.07 in SE 1.2 mph 1.2 mph 87 % 0.00 in
23:17 48.6 °F 44.9 °F 30.07 in SE 1.2 mph 1.2 mph 87 % 0.00 in
23:21 48.8 °F 45.1 °F 30.07 in SE 1.2 mph 1.2 mph 87 % 0.00 in
23:29 49.1 °F 45.1 °F 30.07 in SE 1.2 mph 1.2 mph 86 % 0.00 in
23:30 49.2 °F 45.5 °F 30.06 in SE 1.2 mph 1.2 mph 87 % 0.00 in
23:35 49.6 °F 45.6 °F 30.06 in SE 1.2 mph   86 % 0.00 in
23:36 49.7 °F 45.7 °F 30.06 in SE 1.2 mph 1.2 mph 86 % 0.00 in
23:39 49.9 °F 45.6 °F 30.06 in Calm     85 % 0.00 in
23:41 50.0 °F 45.7 °F 30.06 in SE 1.2 mph 1.2 mph 85 % 0.00 in
23:46 50.0 °F 45.7 °F 30.06 in ESE 1.2 mph 1.2 mph 85 % 0.00 in
23:52 49.9 °F 45.3 °F 30.05 in Calm     84 % 0.00 in
23:55 49.9 °F 45.3 °F 30.05 in Calm     84 % 0.00 in
23:57 49.8 °F 45.2 °F 30.05 in Calm     84 % 0.00 in
Park Place, Exeter, Tulare County, California, USA
Compliments of Weather Underground - 3.25 mb